Time;durP1;ratioP1;P1;durP2;ratioP2;P2;SDS_P1;SDS_P2;PMS_P1;PMS_P2;Temp;Humidity;BMP_temperature;BMP_pressure;BME280_temperature;BME280_humidity;BME280_pressure;Samples;Min_cycle;Max_cycle;Signal;HPM_P1;HPM_P2
2023/05/05 00:02:20;;;;;;;5.37;2.30;;;19.80;54.10;;;;;;5015054;28;20308;-77
2023/05/05 00:04:46;;;;;;;5.27;2.80;;;19.80;54.10;;;;;;5032404;28;20622;-77
2023/05/05 00:07:11;;;;;;;2.77;2.33;;;19.80;54.40;;;;;;5014725;28;20570;-77
2023/05/05 00:09:37;;;;;;;3.23;2.63;;;19.70;54.60;;;;;;5030879;28;20182;-77
2023/05/05 00:12:03;;;;;;;3.00;2.53;;;19.80;54.70;;;;;;5031415;28;20253;-76
2023/05/05 00:14:28;;;;;;;2.77;2.20;;;19.70;54.60;;;;;;5014442;28;20539;-76
2023/05/05 00:16:54;;;;;;;2.50;1.90;;;19.70;54.90;;;;;;5030763;28;20683;-76
2023/05/05 00:19:20;;;;;;;3.33;2.13;;;19.70;54.80;;;;;;5031170;28;20221;-77
2023/05/05 00:21:45;;;;;;;3.97;2.50;;;19.70;54.80;;;;;;5031875;28;20219;-76
2023/05/05 00:24:11;;;;;;;4.70;2.67;;;19.70;55.00;;;;;;5032424;28;20602;-76
2023/05/05 00:26:37;;;;;;;4.20;2.63;;;19.70;54.80;;;;;;5030579;28;20170;-76
2023/05/05 00:29:03;;;;;;;3.43;3.13;;;19.70;55.00;;;;;;5032308;28;20197;-77
2023/05/05 00:31:28;;;;;;;3.40;2.73;;;19.70;55.00;;;;;;5014132;28;20239;-76
2023/05/05 00:33:54;;;;;;;4.03;2.67;;;19.60;54.80;;;;;;5014656;28;20179;-76
2023/05/05 00:36:20;;;;;;;2.70;1.97;;;19.60;55.30;;;;;;5013947;28;20174;-76
2023/05/05 00:38:45;;;;;;;7.30;3.00;;;19.60;55.10;;;;;;5014200;28;20580;-77
2023/05/05 00:41:11;;;;;;;3.53;2.30;;;19.50;55.30;;;;;;5032230;28;20170;-77
2023/05/05 00:43:37;;;;;;;5.13;2.53;;;19.50;55.50;;;;;;5030250;28;20202;-77
2023/05/05 00:46:24;;;;;;;2.97;2.43;;;19.50;55.30;;;;;;5030566;28;20181;-77
2023/05/05 00:48:51;;;;;;;5.10;2.50;;;19.50;55.60;;;;;;5013459;28;20185;-77
2023/05/05 00:51:17;;;;;;;3.10;2.47;;;19.50;55.40;;;;;;5038255;28;20608;-77
2023/05/05 00:53:44;;;;;;;4.27;2.10;;;19.40;55.40;;;;;;5038287;28;21020;-77
2023/05/05 00:56:11;;;;;;;4.03;2.50;;;19.40;55.50;;;;;;5038427;28;20596;-77
2023/05/05 00:58:39;;;;;;;3.33;2.53;;;19.30;55.80;;;;;;5014832;28;20569;-76
2023/05/05 01:01:05;;;;;;;3.73;1.87;;;19.30;55.70;;;;;;5047961;28;20702;-76
2023/05/05 01:03:31;;;;;;;7.50;2.40;;;19.20;55.60;;;;;;5029831;28;20739;-76
2023/05/05 01:06:30;;;;;;;4.00;2.20;;;19.20;56.10;;;;;;5030826;28;20177;-76
2023/05/05 01:09:03;;;;;;;4.60;2.67;;;19.10;56.50;;;;;;5029880;28;20615;-76
2023/05/05 01:11:59;;;;;;;3.53;2.30;;;19.10;55.80;;;;;;5029747;28;21179;-76
2023/05/05 01:14:51;;;;;;;3.10;2.07;;;19.00;56.10;;;;;;5009336;28;20693;-76
2023/05/05 01:17:22;;;;;;;3.17;2.03;;;19.00;56.30;;;;;;5013377;28;20606;-76
2023/05/05 01:20:11;;;;;;;3.30;2.20;;;18.90;56.10;;;;;;5025531;28;20663;-76
2023/05/05 01:22:41;;;;;;;3.90;2.63;;;18.90;56.60;;;;;;5030296;28;20638;-73
2023/05/05 01:25:26;;;;;;;4.77;2.23;;;18.80;56.30;;;;;;5038407;28;20576;-73
2023/05/05 01:28:23;;;;;;;4.23;2.33;;;18.80;56.50;;;;;;5049360;28;20575;-74
2023/05/05 01:31:14;;;;;;;3.50;2.33;;;18.70;56.90;;;;;;5035571;28;20700;-73
2023/05/05 01:33:46;;;;;;;4.23;2.80;;;18.70;56.70;;;;;;4968256;28;20588;-73
2023/05/05 01:36:21;;;;;;;3.47;2.50;;;18.60;57.30;;;;;;5029327;28;20572;-73
2023/05/05 01:38:54;;;;;;;5.10;2.17;;;18.60;57.10;;;;;;5013391;28;20564;-73
2023/05/05 01:41:25;;;;;;;5.50;3.37;;;18.50;57.10;;;;;;5029385;28;20565;-73
2023/05/05 01:43:53;;;;;;;2.83;2.50;;;18.50;57.40;;;;;;5030635;28;20628;-73
2023/05/05 01:46:22;;;;;;;3.10;2.50;;;18.40;57.30;;;;;;5022296;28;20578;-73
2023/05/05 01:48:49;;;;;;;2.90;2.43;;;18.40;57.60;;;;;;5005254;28;20584;-73
2023/05/05 01:51:16;;;;;;;5.80;3.50;;;18.30;57.50;;;;;;5041072;28;20579;-73
2023/05/05 01:53:43;;;;;;;5.27;3.20;;;18.30;57.70;;;;;;5032620;28;20637;-73
2023/05/05 01:56:10;;;;;;;3.40;2.60;;;18.20;57.60;;;;;;5032694;28;21049;-74
2023/05/05 01:58:37;;;;;;;3.23;2.57;;;18.20;58.00;;;;;;5032707;28;20568;-74
2023/05/05 02:01:04;;;;;;;5.00;2.57;;;18.20;58.10;;;;;;5032892;28;20688;-73
2023/05/05 02:03:32;;;;;;;3.70;2.63;;;18.10;58.30;;;;;;5049018;28;20748;-74
2023/05/05 02:06:00;;;;;;;4.23;2.40;;;18.00;58.40;;;;;;5049190;28;20579;-74
2023/05/05 02:08:28;;;;;;;4.13;2.80;;;18.00;58.60;;;;;;5049158;28;20933;-74
2023/05/05 02:10:54;;;;;;;4.33;2.70;;;18.00;58.80;;;;;;5049499;28;20987;-73
2023/05/05 02:13:23;;;;;;;6.83;2.60;;;17.90;58.90;;;;;;5042973;28;21009;-74
2023/05/05 02:15:51;;;;;;;3.10;2.60;;;17.90;59.10;;;;;;5037169;28;20620;-74
2023/05/05 02:18:18;;;;;;;2.83;2.20;;;17.90;59.40;;;;;;5030928;28;20640;-74
2023/05/05 02:20:45;;;;;;;2.87;2.47;;;17.80;59.30;;;;;;5028145;28;20646;-74
2023/05/05 02:23:11;;;;;;;2.90;2.23;;;17.80;59.60;;;;;;5037274;28;20777;-74
2023/05/05 02:25:42;;;;;;;4.20;2.23;;;17.70;59.80;;;;;;5028754;28;20663;-74
2023/05/05 02:28:14;;;;;;;4.93;2.63;;;17.70;60.40;;;;;;5029355;28;20185;-74
2023/05/05 02:30:42;;;;;;;3.10;2.43;;;17.60;60.70;;;;;;5028863;28;20620;-74
2023/05/05 02:33:10;;;;;;;4.30;2.70;;;17.60;60.60;;;;;;5029453;28;20584;-74
2023/05/05 02:35:40;;;;;;;3.50;2.73;;;17.60;61.10;;;;;;5028649;28;20580;-74
2023/05/05 02:38:16;;;;;;;3.00;2.40;;;17.60;61.60;;;;;;5013467;28;20576;-74
2023/05/05 02:40:47;;;;;;;4.57;2.87;;;17.50;61.80;;;;;;5016130;28;21030;-74
2023/05/05 02:43:18;;;;;;;4.20;2.83;;;17.50;62.00;;;;;;5033152;28;20689;-74
2023/05/05 02:45:44;;;;;;;3.30;2.47;;;17.50;62.20;;;;;;5016643;28;20584;-74
2023/05/05 02:48:11;;;;;;;3.37;2.73;;;17.40;62.30;;;;;;5016084;28;20569;-73
2023/05/05 02:50:37;;;;;;;3.50;3.07;;;17.40;62.80;;;;;;5016703;28;20221;-74
2023/05/05 02:53:13;;;;;;;4.83;2.83;;;17.40;63.20;;;;;;5015900;28;20588;-74
2023/05/05 02:55:46;;;;;;;3.80;2.80;;;17.30;64.40;;;;;;5016184;28;20589;-73
2023/05/05 02:58:23;;;;;;;7.37;4.00;;;17.30;64.60;;;;;;5015973;28;20185;-73
2023/05/05 03:01:07;;;;;;;5.37;3.43;;;17.30;65.00;;;;;;5032796;28;20623;-73
2023/05/05 03:04:14;;;;;;;7.10;3.87;;;17.20;66.00;;;;;;5015801;28;21213;-74
2023/05/05 03:06:48;;;;;;;3.53;3.20;;;17.20;66.70;;;;;;5024958;28;20596;-74
2023/05/05 03:09:28;;;;;;;4.43;3.40;;;17.20;66.30;;;;;;5015737;28;20676;-73
2023/05/05 03:12:03;;;;;;;4.57;3.37;;;17.20;66.70;;;;;;5016793;28;20591;-74
2023/05/05 03:14:40;;;;;;;4.83;3.60;;;17.10;67.60;;;;;;5015477;28;20584;-74
2023/05/05 03:17:12;;;;;;;5.13;3.90;;;17.10;67.80;;;;;;4999855;28;20608;-74
2023/05/05 03:19:44;;;;;;;3.53;3.17;;;17.10;68.70;;;;;;5045281;28;20632;-74
2023/05/05 03:22:10;;;;;;;4.00;3.60;;;17.20;69.50;;;;;;5015376;28;20627;-73
2023/05/05 03:24:40;;;;;;;3.93;3.63;;;17.20;69.60;;;;;;5015406;28;20928;-73
2023/05/05 03:27:08;;;;;;;3.73;3.33;;;17.20;70.20;;;;;;5015571;28;20907;-74
2023/05/05 03:29:37;;;;;;;4.33;3.90;;;17.30;71.00;;;;;;5031827;28;20608;-74
2023/05/05 03:32:07;;;;;;;4.50;3.87;;;17.20;71.60;;;;;;5032125;28;20690;-73
2023/05/05 03:34:36;;;;;;;7.60;4.03;;;17.30;72.20;;;;;;5015645;28;20580;-73
2023/05/05 03:37:02;;;;;;;4.20;3.80;;;17.20;72.80;;;;;;5014747;28;20679;-73
2023/05/05 03:39:28;;;;;;;5.20;4.20;;;17.20;73.30;;;;;;5043339;28;20622;-73
2023/05/05 03:41:53;;;;;;;3.77;3.33;;;17.20;74.00;;;;;;5026381;28;20539;-73
2023/05/05 03:44:20;;;;;;;4.53;3.90;;;17.20;74.60;;;;;;5027995;28;20231;-73
2023/05/05 03:46:46;;;;;;;7.53;3.73;;;17.20;75.10;;;;;;5028890;28;20572;-73
2023/05/05 03:49:13;;;;;;;5.82;4.05;;;17.10;75.60;;;;;;5053156;28;20276;-74
2023/05/05 03:51:41;;;;;;;6.17;3.97;;;17.10;76.30;;;;;;5050818;28;20287;-73
2023/05/05 03:54:07;;;;;;;4.23;3.83;;;17.10;77.10;;;;;;5051759;28;21273;-74
2023/05/05 03:56:32;;;;;;;3.90;3.37;;;17.00;77.70;;;;;;5034309;28;20588;-74
2023/05/05 03:58:58;;;;;;;5.80;3.77;;;17.00;78.30;;;;;;5034912;28;20568;-72
2023/05/05 04:01:25;;;;;;;4.30;3.90;;;17.00;79.10;;;;;;5034782;28;20181;-72
2023/05/05 04:03:51;;;;;;;4.97;3.90;;;16.90;80.00;;;;;;5051100;28;20623;-74
2023/05/05 04:06:17;;;;;;;5.20;3.57;;;16.90;80.70;;;;;;5034875;28;20658;-72
2023/05/05 04:08:42;;;;;;;6.53;5.30;;;16.80;81.30;;;;;;5050914;28;20586;-73
2023/05/05 04:11:08;;;;;;;5.43;4.50;;;16.80;82.00;;;;;;5051178;28;20219;-73
2023/05/05 04:13:35;;;;;;;4.97;3.87;;;16.80;82.70;;;;;;5048905;28;20266;-74
2023/05/05 04:16:01;;;;;;;5.03;3.40;;;16.80;83.40;;;;;;5026423;28;20579;-73
2023/05/05 04:18:28;;;;;;;4.40;4.00;;;16.80;84.10;;;;;;5050598;28;20572;-73
2023/05/05 04:20:54;;;;;;;6.20;4.37;;;16.70;84.80;;;;;;5030044;28;20620;-73
2023/05/05 04:23:20;;;;;;;4.53;3.40;;;16.70;85.70;;;;;;5014222;28;20636;-72
2023/05/05 04:25:47;;;;;;;4.43;4.00;;;16.70;86.30;;;;;;5014428;28;20584;-73
2023/05/05 04:28:13;;;;;;;6.30;4.70;;;16.80;87.00;;;;;;5014768;28;20585;-73
2023/05/05 04:30:40;;;;;;;4.43;4.03;;;16.80;87.70;;;;;;5014308;28;20679;-73
2023/05/05 04:33:06;;;;;;;6.73;4.27;;;16.80;88.40;;;;;;4998301;28;20951;-73
2023/05/05 04:35:32;;;;;;;7.43;4.30;;;16.80;89.10;;;;;;5030527;28;20580;-73
2023/05/05 04:37:58;;;;;;;4.53;4.13;;;16.90;89.80;;;;;;5031146;28;20592;-73
2023/05/05 04:40:25;;;;;;;7.03;4.33;;;17.00;90.20;;;;;;5013695;28;21188;-73
2023/05/05 04:42:52;;;;;;;5.60;4.80;;;17.10;90.60;;;;;;5014356;28;20639;-73
2023/05/05 04:45:18;;;;;;;5.23;4.03;;;17.20;90.90;;;;;;5013931;28;20572;-74
2023/05/05 04:47:44;;;;;;;10.03;4.10;;;17.20;91.10;;;;;;5030555;28;20944;-73
2023/05/05 04:50:10;;;;;;;6.23;4.00;;;17.30;91.40;;;;;;5014070;28;20604;-73
2023/05/05 04:52:36;;;;;;;7.60;4.47;;;17.40;91.60;;;;;;5030321;28;20596;-73
2023/05/05 04:55:03;;;;;;;4.93;4.43;;;17.50;92.00;;;;;;5030748;28;21031;-73
2023/05/05 04:57:29;;;;;;;6.47;4.80;;;17.60;92.30;;;;;;5029960;28;20671;-73
2023/05/05 04:59:55;;;;;;;4.80;4.30;;;17.70;92.50;;;;;;5014152;28;20615;-73
2023/05/05 05:02:21;;;;;;;5.37;4.00;;;17.80;92.60;;;;;;5012434;28;20577;-73
2023/05/05 05:04:48;;;;;;;5.97;5.00;;;17.90;92.80;;;;;;5030497;28;20919;-73
2023/05/05 05:07:15;;;;;;;6.17;3.87;;;17.90;93.00;;;;;;5029841;28;21092;-74
2023/05/05 05:09:41;;;;;;;5.87;4.90;;;18.00;93.20;;;;;;5030254;28;20628;-73
2023/05/05 05:12:08;;;;;;;5.43;3.90;;;18.10;93.40;;;;;;5021564;28;20173;-73
2023/05/05 05:14:38;;;;;;;6.67;4.97;;;18.10;93.60;;;;;;5033480;28;20181;-73
2023/05/05 05:17:05;;;;;;;5.63;4.67;;;18.20;94.10;;;;;;5049911;28;20583;-73
2023/05/05 05:19:32;;;;;;;5.60;4.80;;;18.30;94.20;;;;;;5033002;28;20662;-73
2023/05/05 05:21:58;;;;;;;5.80;4.67;;;18.40;94.40;;;;;;5019967;28;20892;-73
2023/05/05 05:24:24;;;;;;;8.90;4.73;;;18.50;94.60;;;;;;5012886;28;20694;-73
2023/05/05 05:26:51;;;;;;;6.70;4.60;;;18.60;94.70;;;;;;5029892;28;20935;-72
2023/05/05 05:29:18;;;;;;;5.90;4.80;;;18.70;94.90;;;;;;5029553;28;20695;-72
2023/05/05 05:31:45;;;;;;;6.07;4.70;;;18.80;95.20;;;;;;5029934;28;20192;-72
2023/05/05 05:34:11;;;;;;;5.30;4.53;;;18.90;95.30;;;;;;5012757;28;20584;-72
2023/05/05 05:36:37;;;;;;;6.87;4.13;;;19.00;95.40;;;;;;5031006;28;20985;-72
2023/05/05 05:39:03;;;;;;;6.50;4.47;;;19.20;95.60;;;;;;5029425;28;20177;-72
2023/05/05 05:41:29;;;;;;;5.20;4.70;;;19.30;95.80;;;;;;5029414;28;20654;-74
2023/05/05 05:43:55;;;;;;;6.37;4.87;;;19.40;96.00;;;;;;5029911;28;20205;-72
2023/05/05 05:46:21;;;;;;;5.80;4.33;;;19.60;96.20;;;;;;5012810;28;20614;-72
2023/05/05 05:48:47;;;;;;;5.30;4.30;;;19.80;96.40;;;;;;4996930;28;20576;-72
2023/05/05 05:51:13;;;;;;;6.67;5.00;;;20.00;96.50;;;;;;5012631;28;20224;-73
2023/05/05 05:53:39;;;;;;;4.50;4.10;;;20.20;96.70;;;;;;5013065;28;20588;-73
2023/05/05 05:56:07;;;;;;;7.47;4.63;;;20.40;96.80;;;;;;5028930;28;20673;-73
2023/05/05 05:58:33;;;;;;;8.37;4.23;;;20.80;97.10;;;;;;5013352;28;20620;-72
2023/05/05 06:00:59;;;;;;;6.47;4.60;;;21.10;97.00;;;;;;5011741;28;20644;-73
2023/05/05 06:03:25;;;;;;;6.73;4.80;;;21.30;96.80;;;;;;5012359;28;20217;-72
2023/05/05 06:05:51;;;;;;;10.03;3.90;;;21.50;96.60;;;;;;5037346;28;21528;-73
2023/05/05 06:08:18;;;;;;;4.90;4.40;;;21.70;96.80;;;;;;5010630;28;20337;-72
2023/05/05 06:10:49;;;;;;;5.40;3.87;;;21.90;96.40;;;;;;5020913;28;21235;-73
2023/05/05 06:13:18;;;;;;;6.23;4.90;;;22.20;96.40;;;;;;5029523;28;20579;-72
2023/05/05 06:15:47;;;;;;;5.77;4.17;;;22.40;96.40;;;;;;5016962;28;20628;-72
2023/05/05 06:18:13;;;;;;;7.20;4.17;;;22.90;96.90;;;;;;5016393;28;20592;-73
2023/05/05 06:20:40;;;;;;;7.40;4.60;;;23.30;96.80;;;;;;5032904;28;20635;-73
2023/05/05 06:23:06;;;;;;;5.30;4.57;;;23.70;96.40;;;;;;5032974;28;20727;-73
2023/05/05 06:25:35;;;;;;;5.70;4.77;;;24.10;96.00;;;;;;5016592;28;20585;-73
2023/05/05 06:28:03;;;;;;;4.97;4.30;;;24.60;96.20;;;;;;5034195;28;20596;-73
2023/05/05 06:30:28;;;;;;;4.83;4.17;;;25.20;96.10;;;;;;5034555;28;20804;-72
2023/05/05 06:32:54;;;;;;;9.70;5.30;;;25.90;95.80;;;;;;5034289;28;20667;-72
2023/05/05 06:35:21;;;;;;;7.23;5.87;;;26.50;95.30;;;;;;5032892;28;20713;-72
2023/05/05 06:37:46;;;;;;;6.10;4.27;;;27.50;91.40;;;;;;5034163;28;20260;-72
2023/05/05 06:40:12;;;;;;;7.50;4.93;;;27.80;92.00;;;;;;5032424;28;20699;-73
2023/05/05 06:42:38;;;;;;;5.60;4.40;;;28.10;91.40;;;;;;5032911;28;20204;-72
2023/05/05 06:45:07;;;;;;;6.70;4.80;;;28.30;90.50;;;;;;5032478;28;20186;-72
2023/05/05 06:47:33;;;;;;;7.30;4.33;;;28.50;89.30;;;;;;5034028;28;20572;-72
2023/05/05 06:49:59;;;;;;;9.63;4.83;;;28.50;87.90;;;;;;5015565;28;20624;-73
2023/05/05 06:52:25;;;;;;;7.00;4.47;;;28.50;86.40;;;;;;5010708;28;20173;-72
2023/05/05 06:54:50;;;;;;;5.83;4.60;;;28.70;86.50;;;;;;5046736;28;20783;-72
2023/05/05 06:57:16;;;;;;;5.37;4.33;;;28.90;86.30;;;;;;5032397;28;20576;-72
2023/05/05 06:59:42;;;;;;;12.83;5.40;;;29.30;86.10;;;;;;5032742;28;20190;-72
2023/05/05 07:02:08;;;;;;;6.43;4.67;;;29.60;84.80;;;;;;5033653;28;20252;-72
2023/05/05 07:04:33;;;;;;;4.93;4.43;;;29.90;83.80;;;;;;5045371;28;20292;-73
2023/05/05 07:06:59;;;;;;;4.03;3.73;;;30.20;82.50;;;;;;5051982;28;20640;-72
2023/05/05 07:09:25;;;;;;;6.03;4.87;;;30.30;80.90;;;;;;5035850;28;20852;-72
2023/05/05 07:11:51;;;;;;;4.03;3.57;;;30.30;79.40;;;;;;5053094;28;20173;-74
2023/05/05 07:14:16;;;;;;;7.77;4.60;;;30.30;78.20;;;;;;5053531;28;20230;-74
2023/05/05 07:16:42;;;;;;;6.73;4.20;;;30.40;77.10;;;;;;5052827;28;20885;-74
2023/05/05 07:19:08;;;;;;;4.70;3.87;;;30.30;76.20;;;;;;5052081;28;20657;-74
2023/05/05 07:21:34;;;;;;;4.90;3.83;;;30.30;75.20;;;;;;5056966;23;20187;-81
2023/05/05 07:24:01;;;;;;;4.93;4.43;;;30.20;74.60;;;;;;5034625;28;20237;-81
2023/05/05 07:26:27;;;;;;;4.77;3.40;;;30.10;74.00;;;;;;5023629;28;20191;-82
2023/05/05 07:28:54;;;;;;;4.23;3.50;;;30.10;73.70;;;;;;5048623;28;20583;-81
2023/05/05 07:31:20;;;;;;;4.50;4.10;;;30.30;74.20;;;;;;5052614;28;20634;-82
2023/05/05 07:33:46;;;;;;;3.53;3.23;;;30.50;73.10;;;;;;5015320;28;20935;-82
2023/05/05 07:36:12;;;;;;;6.40;3.87;;;30.70;72.00;;;;;;5033579;28;20583;-81
2023/05/05 07:38:38;;;;;;;6.47;3.90;;;30.80;71.10;;;;;;4984616;28;20179;-81
2023/05/05 07:41:04;;;;;;;4.50;3.17;;;31.00;70.20;;;;;;5009567;28;21046;-82
2023/05/05 07:43:30;;;;;;;3.50;2.90;;;31.10;68.70;;;;;;4992478;28;20206;-82
2023/05/05 07:45:55;;;;;;;3.57;3.10;;;31.20;68.10;;;;;;4993154;28;20171;-81
2023/05/05 07:48:21;;;;;;;5.53;3.07;;;31.30;67.40;;;;;;5010279;28;20619;-80
2023/05/05 07:50:47;;;;;;;4.10;3.70;;;31.40;66.70;;;;;;5010521;28;20758;-80
2023/05/05 07:53:13;;;;;;;3.53;3.23;;;31.50;65.90;;;;;;5013869;28;20266;-80
2023/05/05 07:55:41;;;;;;;6.60;4.70;;;31.60;65.70;;;;;;4996892;28;20190;-82
2023/05/05 07:58:07;;;;;;;4.17;3.83;;;31.80;65.40;;;;;;4996797;28;20183;-81
2023/05/05 08:00:33;;;;;;;4.80;3.40;;;32.00;65.60;;;;;;5021746;28;20586;-81
2023/05/05 08:02:58;;;;;;;4.53;3.00;;;32.30;65.60;;;;;;5029318;28;21350;-83
2023/05/05 08:05:24;;;;;;;3.83;3.40;;;32.40;65.40;;;;;;5014056;28;20174;-83
2023/05/05 08:07:50;;;;;;;4.10;3.70;;;32.80;64.60;;;;;;5012735;28;20649;-83
2023/05/05 08:10:16;;;;;;;3.60;3.17;;;33.00;63.10;;;;;;5014662;28;20581;-84
2023/05/05 08:12:42;;;;;;;6.00;3.67;;;33.20;62.70;;;;;;5032633;28;20614;-84
2023/05/05 08:15:08;;;;;;;3.83;3.17;;;33.40;62.20;;;;;;5016701;28;20204;-84
2023/05/05 08:17:49;;;;;;;3.93;3.50;;;33.60;61.00;;;;;;5013904;28;20641;-84
2023/05/05 08:20:19;;;;;;;5.10;3.90;;;33.70;59.50;;;;;;5014044;28;20691;-85
2023/05/05 08:22:45;;;;;;;4.30;3.40;;;33.80;59.20;;;;;;5011967;28;20686;-85
2023/05/05 08:25:11;;;;;;;5.13;4.10;;;33.80;58.80;;;;;;5013197;28;20642;-84
2023/05/05 08:27:41;;;;;;;6.10;4.67;;;33.80;58.20;;;;;;5011693;28;20586;-78
2023/05/05 08:30:08;;;;;;;5.30;3.37;;;33.80;57.60;;;;;;5015539;28;20594;-78
2023/05/05 08:32:33;;;;;;;4.60;3.47;;;33.90;57.40;;;;;;5012556;28;21012;-77
2023/05/05 08:35:04;;;;;;;4.43;3.47;;;34.00;57.00;;;;;;5011823;28;20582;-76
2023/05/05 08:37:30;;;;;;;4.33;3.30;;;34.00;55.80;;;;;;4994857;28;20181;-77
2023/05/05 08:39:57;;;;;;;3.60;3.30;;;33.90;55.70;;;;;;5011390;28;20688;-77
2023/05/05 08:42:23;;;;;;;3.27;2.97;;;33.60;54.90;;;;;;5012485;28;20631;-77
2023/05/05 08:44:48;;;;;;;4.13;3.23;;;33.40;55.00;;;;;;4994526;28;20573;-76
2023/05/05 08:47:15;;;;;;;5.63;3.30;;;33.40;55.00;;;;;;5012462;28;20632;-76
2023/05/05 08:49:45;;;;;;;4.13;3.73;;;33.50;55.30;;;;;;5010878;28;20267;-77
2023/05/05 08:52:19;;;;;;;4.30;3.50;;;33.70;55.10;;;;;;5012682;28;20660;-77
2023/05/05 08:55:00;;;;;;;4.93;3.63;;;34.00;55.10;;;;;;5011950;28;20655;-77
2023/05/05 08:57:48;;;;;;;3.87;2.70;;;34.40;54.80;;;;;;5023480;28;20583;-77
2023/05/05 09:00:18;;;;;;;4.73;2.93;;;34.70;55.40;;;;;;5031757;28;20691;-77
2023/05/05 09:02:45;;;;;;;4.40;3.27;;;35.20;55.10;;;;;;5030819;28;20651;-77
2023/05/05 09:05:11;;;;;;;4.60;3.97;;;35.70;54.80;;;;;;5030969;28;20591;-78
2023/05/05 09:07:37;;;;;;;3.70;3.30;;;36.10;54.50;;;;;;5016144;28;20580;-77
2023/05/05 09:10:04;;;;;;;4.53;4.10;;;36.50;53.40;;;;;;5026781;28;20665;-77
2023/05/05 09:12:30;;;;;;;4.43;4.03;;;36.70;52.60;;;;;;5011941;28;20601;-77
2023/05/05 09:14:57;;;;;;;4.73;4.27;;;36.90;52.00;;;;;;5024750;28;20596;-78
2023/05/05 09:17:24;;;;;;;6.30;4.90;;;37.10;51.50;;;;;;4997040;28;20578;-78
2023/05/05 09:20:04;;;;;;;6.00;5.40;;;36.90;50.10;;;;;;5006362;28;20700;-77
2023/05/05 09:22:45;;;;;;;15.23;5.90;;;36.90;49.70;;;;;;5008397;28;21251;-78
2023/05/05 09:25:12;;;;;;;5.30;4.70;;;36.80;49.60;;;;;;5012027;28;20647;-77
2023/05/05 09:27:46;;;;;;;5.20;4.40;;;36.70;49.70;;;;;;5009717;28;20581;-77
2023/05/05 09:30:15;;;;;;;5.27;4.77;;;36.80;50.20;;;;;;5012076;28;20573;-78
2023/05/05 09:32:47;;;;;;;7.23;4.57;;;37.10;50.40;;;;;;5015811;28;21052;-78
2023/05/05 09:35:14;;;;;;;5.73;5.23;;;37.40;49.40;;;;;;5018987;28;20688;-76
2023/05/05 09:37:40;;;;;;;6.83;4.80;;;37.70;49.00;;;;;;5010992;28;20927;-77
2023/05/05 09:40:08;;;;;;;7.10;6.50;;;37.70;48.00;;;;;;5010404;28;20974;-77
2023/05/05 09:42:37;;;;;;;4.77;4.37;;;37.80;47.30;;;;;;5013828;28;21379;-78
2023/05/05 09:45:18;;;;;;;4.60;4.10;;;37.90;47.40;;;;;;5011951;28;20963;-77
2023/05/05 09:47:45;;;;;;;5.57;5.07;;;38.20;46.70;;;;;;5010913;28;20673;-77
2023/05/05 09:50:14;;;;;;;4.73;4.00;;;38.30;46.90;;;;;;5009985;28;20586;-77
2023/05/05 09:52:41;;;;;;;5.53;3.77;;;38.40;46.50;;;;;;5005188;28;20639;-77
2023/05/05 09:55:16;;;;;;;3.33;3.03;;;38.50;46.60;;;;;;5012533;28;20598;-77
2023/05/05 09:57:42;;;;;;;5.27;3.20;;;38.80;46.00;;;;;;5009968;28;20624;-77
2023/05/05 10:00:09;;;;;;;3.40;3.10;;;39.00;45.90;;;;;;5010754;28;20616;-77
2023/05/05 10:02:37;;;;;;;3.50;3.20;;;39.10;45.30;;;;;;5010011;28;20614;-77
2023/05/05 10:05:08;;;;;;;3.30;3.00;;;39.40;44.70;;;;;;4993194;28;20680;-77
2023/05/05 10:07:36;;;;;;;3.37;2.63;;;39.50;43.60;;;;;;5009856;28;20580;-75
2023/05/05 10:10:03;;;;;;;3.40;2.73;;;39.60;43.10;;;;;;5026050;28;20589;-74
2023/05/05 10:12:30;;;;;;;3.03;2.00;;;39.60;42.90;;;;;;5011058;28;20694;-74
2023/05/05 10:14:58;;;;;;;3.77;1.57;;;39.20;42.40;;;;;;4984384;28;20590;-73
2023/05/05 10:17:25;;;;;;;3.23;2.50;;;39.00;41.90;;;;;;4998969;28;21002;-73
2023/05/05 10:19:55;;;;;;;3.80;3.43;;;38.80;41.90;;;;;;5005880;28;21190;-74
2023/05/05 10:22:22;;;;;;;4.00;2.50;;;38.50;42.20;;;;;;5021474;28;20644;-73
2023/05/05 10:24:57;;;;;;;4.60;2.80;;;38.20;41.90;;;;;;5001029;28;20582;-75
2023/05/05 10:27:25;;;;;;;4.00;3.43;;;37.90;41.80;;;;;;4999646;28;20570;-74
2023/05/05 10:30:01;;;;;;;4.20;3.60;;;37.80;42.20;;;;;;5000545;28;20604;-75
2023/05/05 10:32:43;;;;;;;4.37;3.67;;;37.70;42.10;;;;;;5003091;28;20619;-75
2023/05/05 10:35:10;;;;;;;5.27;3.47;;;37.50;42.20;;;;;;5011372;28;20565;-74
2023/05/05 10:37:40;;;;;;;4.00;3.60;;;37.30;42.50;;;;;;5025812;28;20578;-75
2023/05/05 10:40:08;;;;;;;7.63;3.80;;;37.10;42.70;;;;;;5027593;28;20585;-74
2023/05/05 10:42:37;;;;;;;3.67;2.60;;;36.90;42.60;;;;;;5023193;28;20627;-74
2023/05/05 10:45:03;;;;;;;4.00;3.47;;;36.60;42.30;;;;;;4991329;28;20696;-75
2023/05/05 10:47:30;;;;;;;4.87;3.20;;;36.30;42.30;;;;;;4986045;28;20605;-75
2023/05/05 10:50:07;;;;;;;3.50;3.20;;;36.00;42.30;;;;;;4985533;28;20588;-76
2023/05/05 10:52:36;;;;;;;2.87;2.00;;;35.70;42.10;;;;;;5003244;28;20704;-75
2023/05/05 10:55:16;;;;;;;4.33;3.27;;;35.30;42.20;;;;;;5015551;28;20589;-76
2023/05/05 10:57:44;;;;;;;3.00;2.70;;;34.90;42.20;;;;;;5039861;28;21024;-76
2023/05/05 11:00:38;;;;;;;2.70;2.37;;;34.40;42.50;;;;;;5021564;28;20578;-76
2023/05/05 11:03:30;;;;;;;2.80;1.97;;;34.00;42.60;;;;;;5015586;28;20692;-75
2023/05/05 11:06:11;;;;;;;4.67;3.30;;;33.40;42.50;;;;;;5012315;28;20598;-75
2023/05/05 11:08:42;;;;;;;4.97;3.40;;;32.80;43.00;;;;;;5030437;28;20700;-76
2023/05/05 11:11:12;;;;;;;4.97;3.80;;;32.10;43.00;;;;;;5014180;28;20683;-75
2023/05/05 11:13:39;;;;;;;5.43;4.07;;;31.40;43.50;;;;;;5014061;28;20572;-75
2023/05/05 11:16:25;;;;;;;3.23;2.93;;;30.80;44.00;;;;;;5012132;28;20179;-73
2023/05/05 11:18:51;;;;;;;9.00;4.20;;;30.10;44.20;;;;;;5014285;28;20601;-75
2023/05/05 11:21:17;;;;;;;2.50;2.20;;;29.40;45.10;;;;;;5012982;28;20589;-75
2023/05/05 11:23:48;;;;;;;3.07;1.80;;;28.70;45.70;;;;;;4997467;28;20242;-74
2023/05/05 11:26:14;;;;;;;3.17;1.80;;;28.10;46.10;;;;;;5018817;28;20651;-74
2023/05/05 11:28:55;;;;;;;7.47;1.50;;;27.30;47.00;;;;;;5029859;28;20676;-75
2023/05/05 11:31:23;;;;;;;2.57;1.10;;;26.70;48.10;;;;;;5026266;28;20588;-74
2023/05/05 11:33:49;;;;;;;2.70;0.90;;;26.10;48.40;;;;;;5037063;28;20592;-75
2023/05/05 11:36:16;;;;;;;1.90;0.90;;;25.50;49.00;;;;;;5023145;28;20603;-75
2023/05/05 11:39:06;;;;;;;3.13;0.77;;;24.90;49.90;;;;;;5024178;28;20180;-74
2023/05/05 11:41:32;;;;;;;2.83;0.80;;;24.30;51.90;;;;;;5028083;28;20651;-75
2023/05/05 11:44:13;;;;;;;1.80;0.70;;;23.60;51.00;;;;;;5013570;28;20628;-74
2023/05/05 11:47:00;;;;;;;2.37;0.77;;;23.00;53.20;;;;;;5022381;28;20189;-74
2023/05/05 11:49:34;;;;;;;2.30;1.53;;;22.40;52.30;;;;;;5009392;28;20995;-75
2023/05/05 11:52:01;;;;;;;2.07;0.70;;;21.80;53.40;;;;;;5013885;28;20604;-75
2023/05/05 11:54:27;;;;;;;2.70;0.90;;;21.40;54.60;;;;;;5013256;28;20631;-75
2023/05/05 11:57:07;;;;;;;1.83;0.90;;;20.90;56.00;;;;;;5013489;28;20663;-75
2023/05/05 11:59:38;;;;;;;1.90;1.20;;;20.50;58.00;;;;;;5011752;28;20672;-75
2023/05/05 12:02:03;;;;;;;4.87;1.07;;;20.20;59.30;;;;;;5028592;28;20624;-76
2023/05/05 12:04:30;;;;;;;2.40;1.20;;;19.90;59.60;;;;;;5028765;28;20638;-76
2023/05/05 12:06:59;;;;;;;3.67;1.60;;;19.70;61.70;;;;;;5012726;28;20589;-76
2023/05/05 12:09:26;;;;;;;2.63;1.00;;;19.60;63.70;;;;;;5015200;28;20660;-75
2023/05/05 12:11:56;;;;;;;2.90;1.03;;;19.50;66.10;;;;;;5013598;28;21215;-75
2023/05/05 12:14:23;;;;;;;1.63;0.87;;;19.50;67.60;;;;;;5029299;28;20625;-75
2023/05/05 12:17:00;;;;;;;2.63;0.90;;;19.60;69.90;;;;;;5012295;28;20601;-75
2023/05/05 12:19:29;;;;;;;4.03;1.60;;;19.60;73.40;;;;;;5024698;28;21120;-74
2023/05/05 12:21:55;;;;;;;3.03;1.07;;;19.80;74.60;;;;;;5019728;28;20636;-74
2023/05/05 12:24:21;;;;;;;1.80;1.00;;;19.90;77.80;;;;;;5013486;28;20643;-76
2023/05/05 12:26:47;;;;;;;2.33;0.90;;;20.20;78.50;;;;;;4990570;28;20591;-74
2023/05/05 12:29:23;;;;;;;2.63;1.10;;;20.30;80.30;;;;;;4993718;28;20629;-75
2023/05/05 12:31:49;;;;;;;3.17;1.00;;;20.50;84.50;;;;;;4993231;28;20194;-75
2023/05/05 12:34:16;;;;;;;5.27;1.00;;;20.60;84.20;;;;;;4994022;28;20586;-75
2023/05/05 12:36:43;;;;;;;3.60;1.10;;;20.70;85.80;;;;;;4991900;28;20605;-75
2023/05/05 12:39:08;;;;;;;4.50;1.27;;;20.90;87.50;;;;;;5007837;28;21164;-75
2023/05/05 12:41:35;;;;;;;3.60;1.63;;;20.90;88.60;;;;;;5026164;28;20594;-75
2023/05/05 12:44:02;;;;;;;4.70;1.40;;;21.00;90.00;;;;;;5027763;28;20202;-75
2023/05/05 12:46:28;;;;;;;3.73;1.50;;;21.10;90.80;;;;;;5035189;28;20583;-74
2023/05/05 12:49:03;;;;;;;2.50;0.87;;;21.20;91.80;;;;;;5030639;28;20670;-77
2023/05/05 12:51:33;;;;;;;1.97;1.20;;;21.30;93.10;;;;;;5031889;28;20572;-76
2023/05/05 12:54:11;;;;;;;2.37;1.00;;;21.40;92.90;;;;;;5031946;28;20577;-75
2023/05/05 12:56:39;;;;;;;2.20;1.07;;;21.50;94.00;;;;;;5031710;28;20587;-77